Terminal Aerodrome Forecast
Issued by NWS Sioux Falls, SD

Home | Current Version | Previous Version | Graphics & Text | Print | Product List | Glossary On
Versions: 1 2 3 4 5 6 7 8 9 10 11 12 13 14 15 16 17 18 19
000
FTUS43 KFSD 270539
TAFHON
TAF
KHON 270539Z 2706/2806 VRB03KT P6SM SCT150
     FM271500 13008KT P6SM BKN120
     FM271900 14010KT P6SM OVC040
     FM280000 15012KT P6SM SCT050=

USA.gov is the U.S. government's official web portal to all federal, state and local government web resources and services.